Terminal Aerodrome Forecast
Issued by NWS

Home | Current Version | Previous Version | Text Only | Print | Product List | Glossary On
Versions: 1 2 3 4 5 6 7 8 9 10 11 12 13
739
FTUS45 KVEF 202320
TAFBIH
TAF
KBIH 202320Z 2100/2124 17009KT P6SM SCT100 BKN250
     FM210600 30007KT P6SM FEW010 BKN200
     FM212100 18005KT P6SM BKN100=

USA.gov is the U.S. government's official web portal to all federal, state and local government web resources and services.